HHH weather

Hilton Head Airport
Hilton Head Island, South Carolina, United States

Public forecast

Using degrees Fahrenheit for public forecast. Weather courtesy of forecast.io.

Current aviation weather report (METAR) for Hilton Head Airport

Retrieved 2020/01/19 22:50 UTC (59 minutes ago):

KHXD 192250Z 30007G13KT 10SM BKN080 13/M01 A3003

Closest aviation forecast (TAF) to Hilton Head Airport

Forecast is more than 12 hours old.

Closest forecast is Beaufort MCAS - Merritt Field, 15.2 nm (28.2 km) N. Retrieved 2013/06/20 09:07 UTC (7 years ago):

TAF COR KNBC 200900Z 2009/2109 VRB06KT 9999 SCT010 BKN030 QNH3001INS TEMPO 2009/2012 00000KT 2400 BR BKN010 FM201200 VRB06KT 9999 FEW020 SCT050 QNH3004 FM201600 05007KT 9999 VCSH SCT030 BKN070 QNH3008INS TEMPO 2018/2100 05010KT 3200 SHRA BR BKN025 T28/2019Z T22/2109Z 1103